createdAt,value
2018-06-16T00:03:59.700Z,101019.00
2018-06-16T00:08:52.965Z,101028.00
2018-06-16T00:13:46.357Z,101028.00
2018-06-16T00:18:39.674Z,101032.00
2018-06-16T00:23:32.920Z,101037.00
2018-06-16T00:28:26.159Z,101034.00
2018-06-16T00:33:19.406Z,101033.00
2018-06-16T00:38:12.675Z,101023.00
2018-06-16T00:43:05.960Z,101021.00
2018-06-16T00:47:59.222Z,101017.00
2018-06-16T00:52:52.658Z,101016.00
2018-06-16T00:57:47.982Z,101019.00
2018-06-16T01:02:41.357Z,101018.00
2018-06-16T01:07:34.770Z,101024.00
2018-06-16T01:12:28.170Z,101021.00
2018-06-16T01:17:21.451Z,101022.00
2018-06-16T01:22:14.759Z,101026.00
2018-06-16T01:27:08.017Z,101030.00
2018-06-16T01:32:02.095Z,101023.00
2018-06-16T01:36:55.363Z,101028.00
2018-06-16T01:41:48.610Z,101025.00
2018-06-16T01:46:41.864Z,101017.00
2018-06-16T01:51:35.144Z,101025.00
2018-06-16T01:56:28.394Z,101016.00
2018-06-16T02:01:21.638Z,101014.00
2018-06-16T02:06:14.935Z,101013.00
2018-06-16T02:11:08.208Z,101014.00
2018-06-16T02:16:01.499Z,101017.00
2018-06-16T02:20:54.911Z,101022.00
2018-06-16T02:25:48.226Z,101023.00
2018-06-16T02:30:41.470Z,101023.00
2018-06-16T02:35:34.725Z,101023.00
2018-06-16T02:40:28.020Z,101031.00
2018-06-16T02:45:21.250Z,101028.00
2018-06-16T02:50:14.545Z,101030.00
2018-06-16T02:55:07.813Z,101031.00
2018-06-16T03:00:01.040Z,101024.00
2018-06-16T03:04:54.924Z,101027.00
2018-06-16T03:09:48.172Z,101020.00
2018-06-16T03:14:41.383Z,101016.00
2018-06-16T03:19:34.632Z,101015.00
2018-06-16T03:24:27.845Z,101021.00
2018-06-16T03:29:21.128Z,101026.00
2018-06-16T03:34:14.357Z,101023.00
2018-06-16T03:39:08.395Z,101027.00
2018-06-16T03:44:01.653Z,101021.00
2018-06-16T03:48:54.904Z,101027.00
2018-06-16T03:53:48.169Z,101024.00
2018-06-16T03:58:41.659Z,101024.00
2018-06-16T04:03:34.921Z,101025.00
2018-06-16T04:08:28.144Z,101025.00
2018-06-16T04:13:21.391Z,101025.00
2018-06-16T04:18:14.650Z,101020.00
2018-06-16T04:23:07.895Z,101023.00
2018-06-16T04:28:01.130Z,101025.00
2018-06-16T04:32:54.385Z,101025.00
2018-06-16T04:37:47.634Z,101021.00
2018-06-16T04:42:40.904Z,101023.00
2018-06-16T04:47:34.286Z,101019.00
2018-06-16T04:52:27.522Z,101022.00
2018-06-16T04:57:20.813Z,101029.00
2018-06-16T05:02:14.163Z,101021.00
2018-06-16T05:07:07.501Z,101017.00
2018-06-16T05:12:00.732Z,101018.00
2018-06-16T05:16:54.038Z,101016.00
2018-06-16T05:21:47.329Z,101015.00
2018-06-16T05:26:40.596Z,101018.00
2018-06-16T05:31:33.853Z,101023.00
2018-06-16T05:36:27.099Z,101017.00
2018-06-16T05:41:20.330Z,101032.00
2018-06-16T05:46:13.853Z,101022.00
2018-06-16T05:51:07.125Z,101032.00
2018-06-16T05:56:00.379Z,101025.00
2018-06-16T06:00:53.630Z,101032.00
2018-06-16T06:05:46.890Z,101033.00
2018-06-16T06:10:40.111Z,101024.00
2018-06-16T06:15:33.364Z,101026.00
2018-06-16T06:20:26.627Z,101031.00
2018-06-16T06:25:19.881Z,101034.00
2018-06-16T06:30:16.391Z,101033.00
2018-06-16T06:35:09.676Z,101033.00
2018-06-16T06:40:03.057Z,101036.00
2018-06-16T06:44:56.438Z,101043.00
2018-06-16T06:49:49.712Z,101034.00
2018-06-16T06:54:42.984Z,101037.00
2018-06-16T06:59:36.281Z,101034.00
2018-06-16T07:04:29.635Z,101033.00
2018-06-16T07:09:22.925Z,101037.00
2018-06-16T07:14:16.197Z,101026.00
2018-06-16T07:19:09.446Z,101014.00
2018-06-16T07:24:02.703Z,101017.00
2018-06-16T07:28:56.056Z,101013.00
2018-06-16T07:33:49.375Z,101011.00
2018-06-16T07:38:42.644Z,101025.00
2018-06-16T07:43:36.290Z,101015.00
2018-06-16T07:48:29.519Z,101019.00
2018-06-16T07:53:22.746Z,101026.00
2018-06-16T07:58:16.025Z,101011.00
2018-06-16T08:03:09.279Z,101014.00
2018-06-16T08:08:02.579Z,101021.00
2018-06-16T08:12:55.904Z,101015.00
2018-06-16T08:17:49.270Z,101021.00
2018-06-16T08:22:43.130Z,101017.00
2018-06-16T08:27:36.426Z,101010.00
2018-06-16T08:32:29.729Z,101010.00
2018-06-16T08:37:23.037Z,101017.00
2018-06-16T08:42:16.345Z,101010.00
2018-06-16T08:47:10.454Z,101001.00
2018-06-16T08:52:03.682Z,101005.00
2018-06-16T08:56:56.914Z,101001.00
2018-06-16T09:01:50.173Z,100996.00
2018-06-16T09:06:43.648Z,100982.00
2018-06-16T09:11:37.020Z,100994.00
2018-06-16T09:16:30.249Z,100984.00
2018-06-16T09:21:23.507Z,100983.00
2018-06-16T09:26:16.852Z,100980.00
2018-06-16T09:31:10.109Z,100976.00
2018-06-16T09:36:03.383Z,100975.00
2018-06-16T09:40:56.715Z,100965.00
2018-06-16T09:45:49.956Z,100971.00
2018-06-16T09:50:46.237Z,100971.00
2018-06-16T09:55:39.505Z,100970.00
2018-06-16T10:00:38.420Z,100975.00
2018-06-16T10:05:31.684Z,100975.00
2018-06-16T10:10:25.025Z,100961.00
2018-06-16T10:15:18.286Z,100965.00
2018-06-16T10:20:11.533Z,100961.00
2018-06-16T10:25:04.788Z,100961.00
2018-06-16T10:29:58.024Z,100948.00
2018-06-16T10:34:52.160Z,100953.00
2018-06-16T10:39:45.433Z,100948.00
2018-06-16T10:44:38.712Z,100942.00
2018-06-16T10:49:31.983Z,100938.00
2018-06-16T10:54:25.241Z,100942.00
2018-06-16T10:59:18.533Z,100940.00
2018-06-16T11:04:11.792Z,100938.00
2018-06-16T11:09:07.822Z,100934.00
2018-06-16T11:14:01.046Z,100933.00
2018-06-16T11:18:54.468Z,100929.00
2018-06-16T11:23:47.754Z,100926.00
2018-06-16T11:28:41.022Z,100924.00
2018-06-16T11:33:34.287Z,100919.00
2018-06-16T11:38:27.530Z,100906.00
2018-06-16T11:43:20.952Z,100912.00
2018-06-16T11:48:14.195Z,100901.00
2018-06-16T11:53:07.501Z,100896.00
2018-06-16T11:58:02.148Z,100891.00
2018-06-16T12:02:55.542Z,100882.00
2018-06-16T12:07:49.083Z,100877.00
2018-06-16T12:12:42.340Z,100864.00
2018-06-16T12:17:35.622Z,100875.00
2018-06-16T12:22:28.886Z,100876.00
2018-06-16T12:27:22.133Z,100863.00
2018-06-16T12:32:15.364Z,100857.00
2018-06-16T12:37:08.609Z,100846.00
2018-06-16T12:42:01.862Z,100843.00
2018-06-16T12:46:55.302Z,100843.00
2018-06-16T12:51:49.336Z,100850.00
2018-06-16T12:56:43.321Z,100845.00
2018-06-16T13:01:36.549Z,100845.00
2018-06-16T13:06:30.239Z,100839.00
2018-06-16T13:11:23.555Z,100840.00
2018-06-16T13:16:17.365Z,100845.00
2018-06-16T13:21:10.787Z,100836.00
2018-06-16T13:26:04.144Z,100829.00
2018-06-16T13:30:57.391Z,100845.00
2018-06-16T13:35:50.696Z,100846.00
2018-06-16T13:40:44.611Z,100844.00
2018-06-16T13:45:38.156Z,100841.00
2018-06-16T13:50:31.475Z,100829.00
2018-06-16T13:55:24.716Z,100827.00
2018-06-16T14:00:18.111Z,100830.00
2018-06-16T14:05:11.373Z,100824.00
2018-06-16T14:10:04.677Z,100829.00
2018-06-16T14:14:57.965Z,100826.00
2018-06-16T14:19:51.227Z,100824.00
2018-06-16T14:24:44.515Z,100821.00
2018-06-16T14:29:37.784Z,100819.00
2018-06-16T14:34:31.048Z,100819.00
2018-06-16T14:39:24.333Z,100818.00
2018-06-16T14:44:17.639Z,100804.00
2018-06-16T14:49:10.927Z,100806.00
2018-06-16T14:54:04.269Z,100803.00
2018-06-16T14:58:57.523Z,100798.00
2018-06-16T15:03:50.842Z,100792.00
2018-06-16T15:08:44.093Z,100801.00
2018-06-16T15:13:37.407Z,100785.00
2018-06-16T15:18:30.680Z,100786.00
2018-06-16T15:23:23.994Z,100787.00
2018-06-16T15:28:17.310Z,100783.00
2018-06-16T15:33:10.578Z,100783.00
2018-06-16T15:38:03.857Z,100779.00
2018-06-16T15:42:57.125Z,100778.00
2018-06-16T15:47:50.752Z,100788.00
2018-06-16T15:52:44.017Z,100793.00
2018-06-16T15:57:37.273Z,100816.00
2018-06-16T16:02:30.605Z,100844.00
2018-06-16T16:07:23.846Z,100858.00
2018-06-16T16:12:17.085Z,100845.00
2018-06-16T16:17:10.370Z,100844.00
2018-06-16T16:22:03.634Z,100839.00
2018-06-16T16:26:56.881Z,100833.00
2018-06-16T16:31:50.151Z,100833.00
2018-06-16T16:36:43.464Z,100834.00
2018-06-16T16:41:36.869Z,100835.00
2018-06-16T16:46:30.141Z,100828.00
2018-06-16T16:51:23.384Z,100833.00
2018-06-16T16:56:16.739Z,100838.00
2018-06-16T17:01:10.266Z,100843.00
2018-06-16T17:06:03.710Z,100843.00
2018-06-16T17:10:56.970Z,100838.00
2018-06-16T17:15:50.212Z,100830.00
2018-06-16T17:20:43.513Z,100828.00
2018-06-16T17:25:36.776Z,100821.00
2018-06-16T17:30:30.060Z,100829.00
2018-06-16T17:35:23.332Z,100829.00
2018-06-16T17:40:17.515Z,100822.00
2018-06-16T17:45:10.775Z,100841.00
2018-06-16T17:50:04.115Z,100869.00
2018-06-16T17:54:57.430Z,100892.00
2018-06-16T17:59:50.679Z,100909.00
2018-06-16T18:04:43.974Z,100911.00
2018-06-16T18:09:37.243Z,100919.00
2018-06-16T18:14:30.506Z,100921.00
2018-06-16T18:19:23.882Z,100904.00
2018-06-16T18:24:17.113Z,100900.00
2018-06-16T18:29:10.378Z,100896.00
2018-06-16T18:34:03.744Z,100899.00
2018-06-16T18:38:56.991Z,100904.00
2018-06-16T18:43:50.241Z,100904.00
2018-06-16T18:48:43.500Z,100910.00
2018-06-16T18:53:36.782Z,100916.00
2018-06-16T18:58:30.069Z,100920.00
2018-06-16T19:03:23.335Z,100920.00
2018-06-16T19:08:16.784Z,100931.00
2018-06-16T19:13:10.123Z,100934.00
2018-06-16T19:18:03.521Z,100938.00
2018-06-16T19:22:56.808Z,100949.00
2018-06-16T19:27:50.087Z,100943.00
2018-06-16T19:32:43.323Z,100944.00
2018-06-16T19:37:36.571Z,100959.00
2018-06-16T19:42:30.053Z,100967.00
2018-06-16T19:47:23.362Z,100977.00
2018-06-16T19:52:16.668Z,100987.00
2018-06-16T19:57:10.078Z,100990.00
2018-06-16T20:02:03.392Z,101002.00
2018-06-16T20:06:56.610Z,101008.00
2018-06-16T20:11:49.945Z,101008.00
2018-06-16T20:16:43.180Z,101009.00
2018-06-16T20:21:36.436Z,101014.00
2018-06-16T20:26:29.936Z,101024.00
2018-06-16T20:31:23.265Z,101016.00
2018-06-16T20:36:16.504Z,101027.00
2018-06-16T20:41:10.543Z,101028.00
2018-06-16T20:46:04.119Z,101025.00
2018-06-16T20:50:57.364Z,101024.00
2018-06-16T20:55:50.619Z,101035.00
2018-06-16T21:00:43.918Z,101049.00
2018-06-16T21:05:37.182Z,101055.00
2018-06-16T21:10:30.439Z,101060.00
2018-06-16T21:15:23.729Z,101066.00
2018-06-16T21:20:17.016Z,101060.00
2018-06-16T21:25:10.291Z,101061.00
2018-06-16T21:30:06.904Z,101057.00
2018-06-16T21:35:00.240Z,101064.00
2018-06-16T21:39:53.580Z,101066.00
2018-06-16T21:44:46.836Z,101068.00
2018-06-16T21:49:40.057Z,101063.00
2018-06-16T21:54:33.302Z,101061.00
2018-06-16T21:59:26.578Z,101056.00
2018-06-16T22:04:19.833Z,101064.00
2018-06-16T22:09:13.115Z,101064.00
2018-06-16T22:14:06.422Z,101064.00
2018-06-16T22:18:59.680Z,101067.00
2018-06-16T22:23:52.929Z,101067.00
2018-06-16T22:28:46.206Z,101072.00
2018-06-16T22:33:39.446Z,101065.00
2018-06-16T22:38:32.706Z,101066.00
2018-06-16T22:43:25.957Z,101060.00
2018-06-16T22:48:19.231Z,101062.00
2018-06-16T22:53:12.462Z,101073.00
2018-06-16T22:58:05.756Z,101071.00
2018-06-16T23:02:59.016Z,101074.00
2018-06-16T23:07:52.830Z,101070.00
2018-06-16T23:12:46.081Z,101067.00
2018-06-16T23:17:39.345Z,101069.00
2018-06-16T23:22:32.567Z,101076.00
2018-06-16T23:27:25.810Z,101081.00
2018-06-16T23:32:19.079Z,101082.00
2018-06-16T23:37:12.328Z,101086.00
2018-06-16T23:42:05.595Z,101085.00
2018-06-16T23:46:58.846Z,101091.00
2018-06-16T23:51:52.132Z,101089.00
2018-06-16T23:56:45.374Z,101100.00
